sensor_id;sensor_type;location;lat;lon;timestamp;temperature;humidity
25170;DHT22;13129;48.012;10.352;2022-09-24T03:32:21;10.50;99.90
25170;DHT22;13129;48.012;10.352;2022-09-24T03:34:46;10.50;99.90
25170;DHT22;13129;48.012;10.352;2022-09-24T03:37:12;10.50;99.90
25170;DHT22;13129;48.012;10.352;2022-09-24T03:39:37;10.50;99.90
25170;DHT22;13129;48.012;10.352;2022-09-24T03:42:03;10.40;99.90
25170;DHT22;13129;48.012;10.352;2022-09-24T03:44:29;10.40;99.90
25170;DHT22;13129;48.012;10.352;2022-09-24T03:46:54;10.30;99.90
25170;DHT22;13129;48.012;10.352;2022-09-24T03:49:20;10.30;99.90
25170;DHT22;13129;48.012;10.352;2022-09-24T03:51:45;10.20;99.90
25170;DHT22;13129;48.012;10.352;2022-09-24T03:54:11;10.10;99.90
25170;DHT22;13129;48.012;10.352;2022-09-24T03:56:36;10.00;99.90
25170;DHT22;13129;48.012;10.352;2022-09-24T03:59:02;9.90;99.90
25170;DHT22;13129;48.012;10.352;2022-09-24T04:01:28;9.90;99.90
25170;DHT22;13129;48.012;10.352;2022-09-24T04:03:56;9.90;99.90
25170;DHT22;13129;48.012;10.352;2022-09-24T04:06:22;9.90;99.90
25170;DHT22;13129;48.012;10.352;2022-09-24T04:08:50;9.80;99.90
25170;DHT22;13129;48.012;10.352;2022-09-24T04:11:15;9.80;99.90
25170;DHT22;13129;48.012;10.352;2022-09-24T04:13:41;9.90;99.90
25170;DHT22;13129;48.012;10.352;2022-09-24T04:16:06;9.90;99.90
25170;DHT22;13129;48.012;10.352;2022-09-24T04:18:32;9.90;99.90
25170;DHT22;13129;48.012;10.352;2022-09-24T04:21:01;9.90;99.90
25170;DHT22;13129;48.012;10.352;2022-09-24T04:23:26;10.00;99.90
25170;DHT22;13129;48.012;10.352;2022-09-24T04:25:52;10.10;99.90
25170;DHT22;13129;48.012;10.352;2022-09-24T04:28:18;10.30;99.90
25170;DHT22;13129;48.012;10.352;2022-09-24T04:30:44;10.40;99.90
25170;DHT22;13129;48.012;10.352;2022-09-24T04:33:09;10.50;99.90
25170;DHT22;13129;48.012;10.352;2022-09-24T04:35:35;10.60;99.90
25170;DHT22;13129;48.012;10.352;2022-09-24T04:38:01;10.70;99.90
25170;DHT22;13129;48.012;10.352;2022-09-24T04:40:27;10.70;99.90
25170;DHT22;13129;48.012;10.352;2022-09-24T04:42:53;10.80;99.90
25170;DHT22;13129;48.012;10.352;2022-09-24T04:45:19;10.80;99.90
25170;DHT22;13129;48.012;10.352;2022-09-24T04:47:46;10.90;99.90
25170;DHT22;13129;48.012;10.352;2022-09-24T04:50:17;10.90;99.90
25170;DHT22;13129;48.012;10.352;2022-09-24T04:52:43;10.90;99.90
25170;DHT22;13129;48.012;10.352;2022-09-24T04:55:08;10.90;99.90
25170;DHT22;13129;48.012;10.352;2022-09-24T04:57:34;10.90;99.90
25170;DHT22;13129;48.012;10.352;2022-09-24T05:00:05;10.90;99.90
25170;DHT22;13129;48.012;10.352;2022-09-24T05:02:31;10.90;99.90
25170;DHT22;13129;48.012;10.352;2022-09-24T05:04:56;10.90;99.90
25170;DHT22;13129;48.012;10.352;2022-09-24T05:07:22;10.90;99.90
25170;DHT22;13129;48.012;10.352;2022-09-24T05:09:47;10.90;99.90
25170;DHT22;13129;48.012;10.352;2022-09-24T05:12:13;10.90;99.90
25170;DHT22;13129;48.012;10.352;2022-09-24T05:14:38;10.90;99.90
25170;DHT22;13129;48.012;10.352;2022-09-24T05:17:04;10.90;99.90
25170;DHT22;13129;48.012;10.352;2022-09-24T05:19:29;11.00;99.90
25170;DHT22;13129;48.012;10.352;2022-09-24T05:21:55;11.00;99.90
25170;DHT22;13129;48.012;10.352;2022-09-24T05:24:20;11.00;99.90
25170;DHT22;13129;48.012;10.352;2022-09-24T05:26:46;11.00;99.90
25170;DHT22;13129;48.012;10.352;2022-09-24T05:29:30;11.00;99.90
25170;DHT22;13129;48.012;10.352;2022-09-24T05:31:56;11.10;99.90
25170;DHT22;13129;48.012;10.352;2022-09-24T05:34:21;11.10;99.90
25170;DHT22;13129;48.012;10.352;2022-09-24T05:36:47;11.20;99.90
25170;DHT22;13129;48.012;10.352;2022-09-24T05:39:12;11.20;99.90
25170;DHT22;13129;48.012;10.352;2022-09-24T05:41:38;11.20;99.90
25170;DHT22;13129;48.012;10.352;2022-09-24T05:44:04;11.30;99.90
25170;DHT22;13129;48.012;10.352;2022-09-24T05:46:30;11.30;99.90
25170;DHT22;13129;48.012;10.352;2022-09-24T05:48:56;11.40;99.90
25170;DHT22;13129;48.012;10.352;2022-09-24T05:51:21;11.50;99.90
25170;DHT22;13129;48.012;10.352;2022-09-24T05:53:47;11.50;99.90
25170;DHT22;13129;48.012;10.352;2022-09-24T05:56:13;11.50;99.90
25170;DHT22;13129;48.012;10.352;2022-09-24T05:58:38;11.50;99.90
25170;DHT22;13129;48.012;10.352;2022-09-24T06:01:04;11.40;99.90
25170;DHT22;13129;48.012;10.352;2022-09-24T06:03:29;11.40;99.90
25170;DHT22;13129;48.012;10.352;2022-09-24T06:05:55;11.30;99.90
25170;DHT22;13129;48.012;10.352;2022-09-24T06:08:27;11.40;99.90
25170;DHT22;13129;48.012;10.352;2022-09-24T06:11:00;11.40;99.90
25170;DHT22;13129;48.012;10.352;2022-09-24T06:13:27;11.30;99.90
25170;DHT22;13129;48.012;10.352;2022-09-24T06:15:58;11.30;99.90
25170;DHT22;13129;48.012;10.352;2022-09-24T06:18:23;11.30;99.90
25170;DHT22;13129;48.012;10.352;2022-09-24T06:20:49;11.30;99.90
25170;DHT22;13129;48.012;10.352;2022-09-24T06:23:15;11.30;99.90
25170;DHT22;13129;48.012;10.352;2022-09-24T06:25:40;11.30;99.90
25170;DHT22;13129;48.012;10.352;2022-09-24T06:28:06;11.30;99.90
25170;DHT22;13129;48.012;10.352;2022-09-24T06:30:33;11.40;99.90
25170;DHT22;13129;48.012;10.352;2022-09-24T06:33:02;11.40;99.90
25170;DHT22;13129;48.012;10.352;2022-09-24T06:35:30;11.50;99.90
25170;DHT22;13129;48.012;10.352;2022-09-24T06:37:56;11.50;99.90
25170;DHT22;13129;48.012;10.352;2022-09-24T06:40:21;11.50;99.90
25170;DHT22;13129;48.012;10.352;2022-09-24T06:42:50;11.60;99.90
25170;DHT22;13129;48.012;10.352;2022-09-24T06:45:17;11.70;99.90
25170;DHT22;13129;48.012;10.352;2022-09-24T06:47:42;11.70;99.90
25170;DHT22;13129;48.012;10.352;2022-09-24T06:50:08;11.80;99.90
25170;DHT22;13129;48.012;10.352;2022-09-24T06:52:34;11.90;99.90
25170;DHT22;13129;48.012;10.352;2022-09-24T06:54:59;11.90;99.90
25170;DHT22;13129;48.012;10.352;2022-09-24T06:57:25;12.00;99.90
25170;DHT22;13129;48.012;10.352;2022-09-24T06:59:51;12.00;99.90
25170;DHT22;13129;48.012;10.352;2022-09-24T07:02:16;12.10;99.90
25170;DHT22;13129;48.012;10.352;2022-09-24T07:04:42;12.20;99.90
25170;DHT22;13129;48.012;10.352;2022-09-24T07:07:08;12.20;99.90
25170;DHT22;13129;48.012;10.352;2022-09-24T07:09:52;12.30;99.90
25170;DHT22;13129;48.012;10.352;2022-09-24T07:12:19;12.40;99.90
25170;DHT22;13129;48.012;10.352;2022-09-24T07:14:44;12.50;99.90
25170;DHT22;13129;48.012;10.352;2022-09-24T07:17:10;12.60;99.90
25170;DHT22;13129;48.012;10.352;2022-09-24T07:19:35;12.60;99.90
25170;DHT22;13129;48.012;10.352;2022-09-24T07:22:02;12.70;99.90
25170;DHT22;13129;48.012;10.352;2022-09-24T07:24:28;12.80;99.90
25170;DHT22;13129;48.012;10.352;2022-09-24T07:26:53;12.90;99.90
25170;DHT22;13129;48.012;10.352;2022-09-24T07:29:19;13.00;99.90
25170;DHT22;13129;48.012;10.352;2022-09-24T07:31:44;13.00;99.90
25170;DHT22;13129;48.012;10.352;2022-09-24T07:34:10;13.10;99.90
25170;DHT22;13129;48.012;10.352;2022-09-24T07:36:35;13.20;99.90
25170;DHT22;13129;48.012;10.352;2022-09-24T07:39:01;13.20;99.90
25170;DHT22;13129;48.012;10.352;2022-09-24T07:41:27;13.30;99.90
25170;DHT22;13129;48.012;10.352;2022-09-24T07:43:54;13.30;99.90
25170;DHT22;13129;48.012;10.352;2022-09-24T07:46:20;13.30;99.90
25170;DHT22;13129;48.012;10.352;2022-09-24T07:48:46;13.20;99.90
25170;DHT22;13129;48.012;10.352;2022-09-24T07:51:13;13.20;99.90
25170;DHT22;13129;48.012;10.352;2022-09-24T07:53:39;13.10;99.90
25170;DHT22;13129;48.012;10.352;2022-09-24T07:56:04;13.00;99.90
25170;DHT22;13129;48.012;10.352;2022-09-24T07:58:30;13.00;99.90
25170;DHT22;13129;48.012;10.352;2022-09-24T08:00:56;12.90;99.90
25170;DHT22;13129;48.012;10.352;2022-09-24T08:03:22;12.80;99.90
25170;DHT22;13129;48.012;10.352;2022-09-24T08:05:47;12.70;99.90
25170;DHT22;13129;48.012;10.352;2022-09-24T08:08:13;12.70;99.90
25170;DHT22;13129;48.012;10.352;2022-09-24T08:10:39;12.60;99.90
25170;DHT22;13129;48.012;10.352;2022-09-24T08:13:06;12.60;99.90
25170;DHT22;13129;48.012;10.352;2022-09-24T08:15:31;12.70;99.90
25170;DHT22;13129;48.012;10.352;2022-09-24T08:18:00;12.70;99.90
25170;DHT22;13129;48.012;10.352;2022-09-24T08:20:27;12.70;99.90
25170;DHT22;13129;48.012;10.352;2022-09-24T08:22:53;12.80;99.90
25170;DHT22;13129;48.012;10.352;2022-09-24T08:25:19;12.90;99.90
25170;DHT22;13129;48.012;10.352;2022-09-24T08:27:44;13.00;99.90
25170;DHT22;13129;48.012;10.352;2022-09-24T08:30:10;13.00;99.90
25170;DHT22;13129;48.012;10.352;2022-09-24T08:32:36;13.10;99.90
25170;DHT22;13129;48.012;10.352;2022-09-24T08:35:01;13.10;99.90
25170;DHT22;13129;48.012;10.352;2022-09-24T08:37:27;13.10;99.90
25170;DHT22;13129;48.012;10.352;2022-09-24T08:39:53;13.10;99.90
25170;DHT22;13129;48.012;10.352;2022-09-24T08:44:54;13.20;99.90
25170;DHT22;13129;48.012;10.352;2022-09-24T08:50:07;13.30;99.90
25170;DHT22;13129;48.012;10.352;2022-09-24T08:52:47;13.40;99.90
25170;DHT22;13129;48.012;10.352;2022-09-24T08:57:53;13.60;99.90
25170;DHT22;13129;48.012;10.352;2022-09-24T09:00:21;13.70;99.90
25170;DHT22;13129;48.012;10.352;2022-09-24T09:08:01;13.90;99.90
25170;DHT22;13129;48.012;10.352;2022-09-24T09:10:31;14.10;99.90
25170;DHT22;13129;48.012;10.352;2022-09-24T09:13:04;14.30;99.90
25170;DHT22;13129;48.012;10.352;2022-09-24T09:15:33;14.40;99.90
25170;DHT22;13129;48.012;10.352;2022-09-24T09:18:00;14.60;99.90
25170;DHT22;13129;48.012;10.352;2022-09-24T09:20:41;14.60;99.90
25170;DHT22;13129;48.012;10.352;2022-09-24T09:23:50;14.60;99.90
25170;DHT22;13129;48.012;10.352;2022-09-24T09:25:59;14.60;99.90
25170;DHT22;13129;48.012;10.352;2022-09-24T09:28:25;14.50;99.90
25170;DHT22;13129;48.012;10.352;2022-09-24T09:40:47;14.40;99.90
25170;DHT22;13129;48.012;10.352;2022-09-24T09:43:15;14.40;99.90
25170;DHT22;13129;48.012;10.352;2022-09-24T09:48:14;14.70;99.90
25170;DHT22;13129;48.012;10.352;2022-09-24T09:50:51;14.80;99.90
25170;DHT22;13129;48.012;10.352;2022-09-24T09:53:21;14.80;99.90
25170;DHT22;13129;48.012;10.352;2022-09-24T09:58:23;15.00;99.90
25170;DHT22;13129;48.012;10.352;2022-09-24T10:00:49;15.00;99.90
25170;DHT22;13129;48.012;10.352;2022-09-24T10:03:28;15.10;99.90
25170;DHT22;13129;48.012;10.352;2022-09-24T10:05:55;15.10;99.90
25170;DHT22;13129;48.012;10.352;2022-09-24T10:08:22;15.10;99.90
25170;DHT22;13129;48.012;10.352;2022-09-24T10:11:00;15.10;99.90
25170;DHT22;13129;48.012;10.352;2022-09-24T10:13:27;15.10;99.90
25170;DHT22;13129;48.012;10.352;2022-09-24T10:15:54;15.10;99.90
25170;DHT22;13129;48.012;10.352;2022-09-24T10:18:33;15.10;99.90
25170;DHT22;13129;48.012;10.352;2022-09-24T10:21:01;15.30;99.90
25170;DHT22;13129;48.012;10.352;2022-09-24T10:23:33;15.30;99.90
25170;DHT22;13129;48.012;10.352;2022-09-24T10:25:59;15.30;99.90
25170;DHT22;13129;48.012;10.352;2022-09-24T10:28:25;15.20;99.90
25170;DHT22;13129;48.012;10.352;2022-09-24T10:31:21;15.20;99.90
25170;DHT22;13129;48.012;10.352;2022-09-24T10:33:49;15.00;99.90
25170;DHT22;13129;48.012;10.352;2022-09-24T10:36:18;14.90;99.90
25170;DHT22;13129;48.012;10.352;2022-09-24T10:38:44;14.90;99.90
25170;DHT22;13129;48.012;10.352;2022-09-24T10:41:13;15.00;99.90
25170;DHT22;13129;48.012;10.352;2022-09-24T10:43:39;15.20;99.90
25170;DHT22;13129;48.012;10.352;2022-09-24T10:46:33;15.20;99.90
25170;DHT22;13129;48.012;10.352;2022-09-24T10:49:04;15.30;99.90
25170;DHT22;13129;48.012;10.352;2022-09-24T10:51:48;15.40;99.90
25170;DHT22;13129;48.012;10.352;2022-09-24T10:56:51;15.50;99.90
25170;DHT22;13129;48.012;10.352;2022-09-24T11:04:39;16.00;99.90
25170;DHT22;13129;48.012;10.352;2022-09-24T11:09:52;16.10;99.90
25170;DHT22;13129;48.012;10.352;2022-09-24T11:13:09;16.10;99.90
25170;DHT22;13129;48.012;10.352;2022-09-24T11:20:28;16.60;99.90
25170;DHT22;13129;48.012;10.352;2022-09-24T11:28:09;16.90;99.90
25170;DHT22;13129;48.012;10.352;2022-09-24T11:30:57;16.80;99.90
25170;DHT22;13129;48.012;10.352;2022-09-24T11:36:07;16.70;99.90
25170;DHT22;13129;48.012;10.352;2022-09-24T11:41:25;16.90;99.90
25170;DHT22;13129;48.012;10.352;2022-09-24T11:44:11;17.40;99.90
25170;DHT22;13129;48.012;10.352;2022-09-24T11:46:46;18.00;99.90
25170;DHT22;13129;48.012;10.352;2022-09-24T11:52:03;18.00;99.90
25170;DHT22;13129;48.012;10.352;2022-09-24T11:57:12;17.30;99.90
25170;DHT22;13129;48.012;10.352;2022-09-24T11:59:49;17.20;99.90
25170;DHT22;13129;48.012;10.352;2022-09-24T12:02:19;17.20;99.90
25170;DHT22;13129;48.012;10.352;2022-09-24T12:04:51;17.20;99.90
25170;DHT22;13129;48.012;10.352;2022-09-24T12:07:52;17.20;99.90
25170;DHT22;13129;48.012;10.352;2022-09-24T12:12:51;17.30;99.90
25170;DHT22;13129;48.012;10.352;2022-09-24T12:15:22;17.30;99.90
25170;DHT22;13129;48.012;10.352;2022-09-24T12:17:51;17.30;99.90
25170;DHT22;13129;48.012;10.352;2022-09-24T12:20:26;17.20;99.90
25170;DHT22;13129;48.012;10.352;2022-09-24T12:22:53;17.10;99.90
25170;DHT22;13129;48.012;10.352;2022-09-24T12:25:25;16.90;99.90
25170;DHT22;13129;48.012;10.352;2022-09-24T12:27:51;16.70;99.90
25170;DHT22;13129;48.012;10.352;2022-09-24T12:33:10;16.30;99.90
25170;DHT22;13129;48.012;10.352;2022-09-24T12:35:45;16.30;99.90
25170;DHT22;13129;48.012;10.352;2022-09-24T12:38:32;16.40;99.90
25170;DHT22;13129;48.012;10.352;2022-09-24T12:43:29;16.60;99.90
25170;DHT22;13129;48.012;10.352;2022-09-24T12:45:57;16.70;99.90
25170;DHT22;13129;48.012;10.352;2022-09-24T12:48:24;16.70;99.90
25170;DHT22;13129;48.012;10.352;2022-09-24T12:50:57;16.60;99.90
25170;DHT22;13129;48.012;10.352;2022-09-24T12:53:24;16.60;99.90
25170;DHT22;13129;48.012;10.352;2022-09-24T12:56:00;16.50;99.90
25170;DHT22;13129;48.012;10.352;2022-09-24T12:58:37;16.50;99.90
25170;DHT22;13129;48.012;10.352;2022-09-24T13:03:35;16.30;99.90
25170;DHT22;13129;48.012;10.352;2022-09-24T13:06:01;16.10;99.90
25170;DHT22;13129;48.012;10.352;2022-09-24T13:08:34;15.90;99.90
25170;DHT22;13129;48.012;10.352;2022-09-24T13:11:01;15.80;99.90
25170;DHT22;13129;48.012;10.352;2022-09-24T13:13:30;15.80;99.90
25170;DHT22;13129;48.012;10.352;2022-09-24T13:15:58;15.70;99.90
25170;DHT22;13129;48.012;10.352;2022-09-24T13:18:25;15.70;99.90
25170;DHT22;13129;48.012;10.352;2022-09-24T13:23:46;15.80;99.90
25170;DHT22;13129;48.012;10.352;2022-09-24T13:26:24;15.80;99.90
25170;DHT22;13129;48.012;10.352;2022-09-24T13:28:54;15.80;99.90
25170;DHT22;13129;48.012;10.352;2022-09-24T13:31:34;15.80;99.90
25170;DHT22;13129;48.012;10.352;2022-09-24T13:39:03;15.70;99.90
25170;DHT22;13129;48.012;10.352;2022-09-24T13:46:39;15.20;99.90
25170;DHT22;13129;48.012;10.352;2022-09-24T13:49:08;15.10;99.90
25170;DHT22;13129;48.012;10.352;2022-09-24T13:51:36;15.00;99.90
25170;DHT22;13129;48.012;10.352;2022-09-24T13:54:07;15.00;99.90
25170;DHT22;13129;48.012;10.352;2022-09-24T13:56:37;15.00;99.90
25170;DHT22;13129;48.012;10.352;2022-09-24T13:59:04;15.00;99.90
25170;DHT22;13129;48.012;10.352;2022-09-24T14:01:34;15.00;99.90
25170;DHT22;13129;48.012;10.352;2022-09-24T14:04:05;15.00;99.90
25170;DHT22;13129;48.012;10.352;2022-09-24T14:06:35;15.00;99.90
25170;DHT22;13129;48.012;10.352;2022-09-24T14:09:01;14.90;99.90
25170;DHT22;13129;48.012;10.352;2022-09-24T14:11:26;15.00;99.90
25170;DHT22;13129;48.012;10.352;2022-09-24T14:13:52;15.20;99.90
25170;DHT22;13129;48.012;10.352;2022-09-24T14:16:23;15.40;99.90
25170;DHT22;13129;48.012;10.352;2022-09-24T14:18:59;15.50;99.90
25170;DHT22;13129;48.012;10.352;2022-09-24T14:21:26;15.60;99.90
25170;DHT22;13129;48.012;10.352;2022-09-24T14:23:55;15.60;99.90
25170;DHT22;13129;48.012;10.352;2022-09-24T14:26:27;15.60;99.90
25170;DHT22;13129;48.012;10.352;2022-09-24T14:28:53;15.50;99.90
25170;DHT22;13129;48.012;10.352;2022-09-24T14:31:19;15.30;99.90
25170;DHT22;13129;48.012;10.352;2022-09-24T14:33:44;15.20;99.90
25170;DHT22;13129;48.012;10.352;2022-09-24T14:36:11;15.20;99.90
25170;DHT22;13129;48.012;10.352;2022-09-24T14:39:00;15.10;99.90
25170;DHT22;13129;48.012;10.352;2022-09-24T14:41:24;15.10;99.90
25170;DHT22;13129;48.012;10.352;2022-09-24T14:43:53;15.20;99.90
25170;DHT22;13129;48.012;10.352;2022-09-24T14:47:18;15.20;99.90
25170;DHT22;13129;48.012;10.352;2022-09-24T14:49:22;15.20;99.90
25170;DHT22;13129;48.012;10.352;2022-09-24T14:52:02;15.20;99.90
25170;DHT22;13129;48.012;10.352;2022-09-24T14:54:35;15.20;99.90
25170;DHT22;13129;48.012;10.352;2022-09-24T14:59:41;15.10;99.90
25170;DHT22;13129;48.012;10.352;2022-09-24T15:04:45;15.00;99.90
25170;DHT22;13129;48.012;10.352;2022-09-24T15:07:30;15.00;99.90
25170;DHT22;13129;48.012;10.352;2022-09-24T15:09:57;14.90;99.90
25170;DHT22;13129;48.012;10.352;2022-09-24T15:12:34;14.90;99.90
25170;DHT22;13129;48.012;10.352;2022-09-24T15:17:29;14.90;99.90
25170;DHT22;13129;48.012;10.352;2022-09-24T15:19:55;14.70;99.90
25170;DHT22;13129;48.012;10.352;2022-09-24T15:22:22;14.70;99.90
25170;DHT22;13129;48.012;10.352;2022-09-24T15:24:52;14.50;99.90
25170;DHT22;13129;48.012;10.352;2022-09-24T15:27:20;14.40;99.90
25170;DHT22;13129;48.012;10.352;2022-09-24T15:29:46;14.40;99.90
25170;DHT22;13129;48.012;10.352;2022-09-24T15:32:16;14.30;99.90
25170;DHT22;13129;48.012;10.352;2022-09-24T15:34:42;14.30;99.90
25170;DHT22;13129;48.012;10.352;2022-09-24T15:37:08;14.20;99.90
25170;DHT22;13129;48.012;10.352;2022-09-24T15:39:35;14.20;99.90
25170;DHT22;13129;48.012;10.352;2022-09-24T15:42:00;14.10;99.90
25170;DHT22;13129;48.012;10.352;2022-09-24T15:44:26;14.10;99.90
25170;DHT22;13129;48.012;10.352;2022-09-24T15:46:51;14.00;99.90
25170;DHT22;13129;48.012;10.352;2022-09-24T15:49:17;14.00;99.90
25170;DHT22;13129;48.012;10.352;2022-09-24T15:51:47;13.90;99.90
25170;DHT22;13129;48.012;10.352;2022-09-24T15:54:13;13.90;99.90
25170;DHT22;13129;48.012;10.352;2022-09-24T15:56:38;13.80;99.90
25170;DHT22;13129;48.012;10.352;2022-09-24T15:59:11;13.80;99.90
25170;DHT22;13129;48.012;10.352;2022-09-24T16:01:38;13.80;99.90
25170;DHT22;13129;48.012;10.352;2022-09-24T16:04:03;13.80;99.90
25170;DHT22;13129;48.012;10.352;2022-09-24T16:06:29;13.80;99.90
25170;DHT22;13129;48.012;10.352;2022-09-24T16:08:54;13.80;99.90
25170;DHT22;13129;48.012;10.352;2022-09-24T16:11:20;13.70;99.90
25170;DHT22;13129;48.012;10.352;2022-09-24T16:13:45;13.70;99.90
25170;DHT22;13129;48.012;10.352;2022-09-24T16:16:11;13.70;99.90
25170;DHT22;13129;48.012;10.352;2022-09-24T16:18:36;13.50;99.90
25170;DHT22;13129;48.012;10.352;2022-09-24T16:21:04;13.50;99.90
25170;DHT22;13129;48.012;10.352;2022-09-24T16:23:30;13.40;99.90
25170;DHT22;13129;48.012;10.352;2022-09-24T16:25:57;13.30;99.90
25170;DHT22;13129;48.012;10.352;2022-09-24T16:28:23;13.30;99.90
25170;DHT22;13129;48.012;10.352;2022-09-24T16:30:49;13.20;99.90
25170;DHT22;13129;48.012;10.352;2022-09-24T16:33:14;13.20;99.90
25170;DHT22;13129;48.012;10.352;2022-09-24T16:35:40;13.10;99.90
25170;DHT22;13129;48.012;10.352;2022-09-24T16:38:05;13.10;99.90
25170;DHT22;13129;48.012;10.352;2022-09-24T16:40:31;13.00;99.90
25170;DHT22;13129;48.012;10.352;2022-09-24T16:42:57;12.90;99.90
25170;DHT22;13129;48.012;10.352;2022-09-24T16:45:23;12.90;99.90
25170;DHT22;13129;48.012;10.352;2022-09-24T16:47:48;12.90;99.90
25170;DHT22;13129;48.012;10.352;2022-09-24T16:50:14;12.90;99.90
25170;DHT22;13129;48.012;10.352;2022-09-24T16:52:40;12.90;99.90
25170;DHT22;13129;48.012;10.352;2022-09-24T16:55:09;12.90;99.90
25170;DHT22;13129;48.012;10.352;2022-09-24T16:57:35;12.90;99.90
25170;DHT22;13129;48.012;10.352;2022-09-24T17:00:03;12.90;99.90
25170;DHT22;13129;48.012;10.352;2022-09-24T17:02:29;13.00;99.90
25170;DHT22;13129;48.012;10.352;2022-09-24T17:04:55;12.90;99.90
25170;DHT22;13129;48.012;10.352;2022-09-24T17:07:21;12.90;99.90
25170;DHT22;13129;48.012;10.352;2022-09-24T17:09:46;13.00;99.90
25170;DHT22;13129;48.012;10.352;2022-09-24T17:12:30;13.00;99.90
25170;DHT22;13129;48.012;10.352;2022-09-24T17:14:56;12.90;99.90
25170;DHT22;13129;48.012;10.352;2022-09-24T17:17:22;12.80;99.90
25170;DHT22;13129;48.012;10.352;2022-09-24T17:19:48;12.70;99.90
25170;DHT22;13129;48.012;10.352;2022-09-24T17:22:15;12.60;99.90
25170;DHT22;13129;48.012;10.352;2022-09-24T17:24:41;12.60;99.90
25170;DHT22;13129;48.012;10.352;2022-09-24T17:27:06;12.50;99.90
25170;DHT22;13129;48.012;10.352;2022-09-24T17:29:32;12.50;99.90
25170;DHT22;13129;48.012;10.352;2022-09-24T17:31:58;12.40;99.90
25170;DHT22;13129;48.012;10.352;2022-09-24T17:34:24;12.30;99.90
25170;DHT22;13129;48.012;10.352;2022-09-24T17:36:50;12.30;99.90
25170;DHT22;13129;48.012;10.352;2022-09-24T17:39:15;12.30;99.90
25170;DHT22;13129;48.012;10.352;2022-09-24T17:41:41;12.20;99.90
25170;DHT22;13129;48.012;10.352;2022-09-24T17:44:06;12.10;99.90
25170;DHT22;13129;48.012;10.352;2022-09-24T17:46:33;12.10;99.90
25170;DHT22;13129;48.012;10.352;2022-09-24T17:49:00;12.10;99.90
25170;DHT22;13129;48.012;10.352;2022-09-24T17:51:28;12.10;99.90
25170;DHT22;13129;48.012;10.352;2022-09-24T17:53:58;12.10;99.90
25170;DHT22;13129;48.012;10.352;2022-09-24T17:56:25;12.10;99.90
25170;DHT22;13129;48.012;10.352;2022-09-24T17:58:52;12.10;99.90
25170;DHT22;13129;48.012;10.352;2022-09-24T18:01:19;12.20;99.90
25170;DHT22;13129;48.012;10.352;2022-09-24T18:03:45;12.10;99.90
25170;DHT22;13129;48.012;10.352;2022-09-24T18:06:12;12.10;99.90
25170;DHT22;13129;48.012;10.352;2022-09-24T18:08:38;12.10;99.90
25170;DHT22;13129;48.012;10.352;2022-09-24T18:11:05;12.10;99.90
25170;DHT22;13129;48.012;10.352;2022-09-24T18:13:31;12.10;99.90
25170;DHT22;13129;48.012;10.352;2022-09-24T18:16:07;12.10;99.90
25170;DHT22;13129;48.012;10.352;2022-09-24T18:18:33;12.10;99.90
25170;DHT22;13129;48.012;10.352;2022-09-24T18:21:03;12.10;99.90
25170;DHT22;13129;48.012;10.352;2022-09-24T18:23:29;12.10;99.90
25170;DHT22;13129;48.012;10.352;2022-09-24T18:26:04;12.10;99.90
25170;DHT22;13129;48.012;10.352;2022-09-24T18:28:31;12.10;99.90
25170;DHT22;13129;48.012;10.352;2022-09-24T18:31:01;12.10;99.90
25170;DHT22;13129;48.012;10.352;2022-09-24T18:33:27;12.10;99.90
25170;DHT22;13129;48.012;10.352;2022-09-24T18:35:53;12.10;99.90
25170;DHT22;13129;48.012;10.352;2022-09-24T18:38:18;12.10;99.90
25170;DHT22;13129;48.012;10.352;2022-09-24T18:40:45;12.10;99.90
25170;DHT22;13129;48.012;10.352;2022-09-24T18:43:11;12.00;99.90
25170;DHT22;13129;48.012;10.352;2022-09-24T18:45:37;12.00;99.90
25170;DHT22;13129;48.012;10.352;2022-09-24T18:48:02;12.00;99.90
25170;DHT22;13129;48.012;10.352;2022-09-24T18:50:28;11.90;99.90
25170;DHT22;13129;48.012;10.352;2022-09-24T18:52:53;11.90;99.90
25170;DHT22;13129;48.012;10.352;2022-09-24T18:55:19;11.80;99.90
25170;DHT22;13129;48.012;10.352;2022-09-24T18:57:45;11.80;99.90
25170;DHT22;13129;48.012;10.352;2022-09-24T19:00:11;11.70;99.90
25170;DHT22;13129;48.012;10.352;2022-09-24T19:02:56;11.50;99.90
25170;DHT22;13129;48.012;10.352;2022-09-24T19:05:22;11.50;99.90
25170;DHT22;13129;48.012;10.352;2022-09-24T19:07:47;11.40;99.90
25170;DHT22;13129;48.012;10.352;2022-09-24T19:10:13;11.30;99.90
25170;DHT22;13129;48.012;10.352;2022-09-24T19:12:38;11.20;99.90
25170;DHT22;13129;48.012;10.352;2022-09-24T19:15:07;11.20;99.90
25170;DHT22;13129;48.012;10.352;2022-09-24T19:17:33;11.20;99.90
25170;DHT22;13129;48.012;10.352;2022-09-24T19:19:58;11.10;99.90
25170;DHT22;13129;48.012;10.352;2022-09-24T19:22:24;11.00;99.90
25170;DHT22;13129;48.012;10.352;2022-09-24T19:24:49;11.00;99.90
25170;DHT22;13129;48.012;10.352;2022-09-24T19:27:15;10.90;99.90
25170;DHT22;13129;48.012;10.352;2022-09-24T19:29:40;10.90;99.90
25170;DHT22;13129;48.012;10.352;2022-09-24T19:32:07;10.70;99.90
25170;DHT22;13129;48.012;10.352;2022-09-24T19:34:32;10.60;99.90
25170;DHT22;13129;48.012;10.352;2022-09-24T19:36:58;10.50;99.90
25170;DHT22;13129;48.012;10.352;2022-09-24T19:39:23;10.40;99.90
25170;DHT22;13129;48.012;10.352;2022-09-24T19:41:49;10.50;99.90
25170;DHT22;13129;48.012;10.352;2022-09-24T19:44:17;10.60;99.90
25170;DHT22;13129;48.012;10.352;2022-09-24T19:46:42;10.70;99.90
25170;DHT22;13129;48.012;10.352;2022-09-24T19:49:08;10.70;99.90
25170;DHT22;13129;48.012;10.352;2022-09-24T19:51:34;10.60;99.90
25170;DHT22;13129;48.012;10.352;2022-09-24T19:54:04;10.60;99.90
25170;DHT22;13129;48.012;10.352;2022-09-24T19:56:30;10.50;99.90
25170;DHT22;13129;48.012;10.352;2022-09-24T19:58:56;10.40;99.90
25170;DHT22;13129;48.012;10.352;2022-09-24T20:01:26;10.40;99.90
25170;DHT22;13129;48.012;10.352;2022-09-24T20:03:52;10.30;99.90
25170;DHT22;13129;48.012;10.352;2022-09-24T20:06:19;10.20;99.90
25170;DHT22;13129;48.012;10.352;2022-09-24T20:08:45;10.10;99.90
25170;DHT22;13129;48.012;10.352;2022-09-24T20:11:12;10.00;99.90
25170;DHT22;13129;48.012;10.352;2022-09-24T20:13:39;9.90;99.90
25170;DHT22;13129;48.012;10.352;2022-09-24T20:16:07;9.80;99.90
25170;DHT22;13129;48.012;10.352;2022-09-24T20:18:33;9.70;99.90
25170;DHT22;13129;48.012;10.352;2022-09-24T20:21:02;9.60;99.90
25170;DHT22;13129;48.012;10.352;2022-09-24T20:23:28;9.50;99.90
25170;DHT22;13129;48.012;10.352;2022-09-24T20:25:53;9.50;99.90